Date,TemperatureHighF,TemperatureAvgF,TemperatureLowF,DewpointHighF,DewpointAvgF,DewpointLowF,HumidityHigh,HumidityAvg,HumidityLow,PressureMaxIn,PressureMinIn,WindSpeedMaxMPH,WindSpeedAvgMPH,GustSpeedMaxMPH,PrecipitationSumIn
2013-6-10,71.1,70.3,69.5,65.7,65.4,65.1,86,85,83,29.80,29.79,1,0,0,0.00
2013-6-11,91.8,76.3,67.5,73.5,67.6,63.8,89,76,43,29.80,29.65,6,1,0,0.00
2013-6-12,89.3,78.4,64.7,73.6,66.1,54.0,84,67,49,29.97,29.61,12,4,0,0.00
2013-6-13,79.6,66.9,58.2,64.4,58.7,54.0,89,76,42,30.07,29.93,4,1,0,0.02
2013-6-14,89.9,72.7,63.1,72.8,65.5,59.7,97,79,57,30.01,29.73,8,3,15,1.41
2013-6-15,83.7,73.9,66.4,71.8,66.5,60.1,94,79,50,29.91,29.78,8,2,14,0.03
2013-6-16,87.9,76.5,66.5,71.5,66.1,58.3,98,73,43,29.94,29.88,4,1,6,0.00
2013-6-17,89.4,78.9,65.8,65.8,60.7,55.9,90,57,34,29.97,29.88,4,1,9,0.00
2013-6-18,86.2,73.0,63.0,67.7,59.4,53.5,94,65,35,30.04,29.92,3,0,7,0.21
2013-6-19,87.8,75.8,63.4,69.1,64.0,57.2,93,69,45,29.98,29.85,5,2,13,0.00
2013-6-20,91.6,80.8,68.3,75.1,70.5,65.3,92,72,54,29.92,29.75,6,2,14,0.00
2013-6-21,95.3,85.7,77.6,77.1,73.3,71.5,82,67,50,29.82,29.71,5,3,14,0.00
2013-6-22,93.0,83.1,72.7,74.4,68.3,60.3,78,62,46,29.94,29.72,9,3,18,0.00
2013-6-23,82.3,74.9,64.6,72.5,68.9,63.8,98,82,68,29.87,29.67,11,2,20,0.62
2013-6-24,83.8,75.5,65.0,74.7,71.0,63.5,96,86,68,29.98,29.65,8,2,12,0.63
2013-6-25,89.0,80.1,70.0,76.6,71.6,65.5,94,76,62,29.77,29.60,5,2,9,0.00
2013-6-26,92.3,82.4,73.4,73.8,68.3,60.9,95,66,36,29.83,29.60,7,2,12,0.00
2013-6-27,87.5,73.2,67.7,72.0,67.9,64.3,95,84,57,29.95,29.82,4,1,6,0.20
2013-6-28,85.9,77.0,70.3,67.1,61.6,55.0,88,62,37,29.94,29.84,9,3,18,0.00
2013-6-29,79.8,73.2,66.7,62.5,57.8,55.3,71,59,48,29.91,29.83,10,4,16,0.00
2013-6-30,79.7,69.8,59.9,60.8,56.4,52.2,90,65,42,30.07,29.91,5,1,13,0.00
2013-7-1,84.1,72.1,57.5,59.6,54.9,52.9,85,57,36,30.16,30.07,4,1,8,0.00
2013-7-2,83.9,71.9,60.9,61.1,57.1,53.7,85,61,39,30.13,30.01,4,1,10,0.00
2013-7-3,86.1,71.0,58.5,66.0,59.7,56.1,96,70,37,30.03,29.91,5,0,7,0.14
2013-7-4,88.7,75.0,58.6,63.4,59.1,55.1,90,60,36,29.97,29.85,4,1,9,0.00
2013-7-5,87.9,78.0,67.5,68.3,63.8,58.3,75,62,50,29.88,29.78,4,2,7,0.00
2013-7-6,90.0,79.0,68.4,70.1,66.3,62.3,82,66,48,29.83,29.75,5,2,7,0.00
2013-7-7,96.0,84.1,74.1,73.3,68.2,63.2,76,60,41,29.84,29.75,4,2,10,0.00
2013-7-8,93.1,82.8,78.0,76.6,71.8,67.4,83,70,52,29.91,29.83,2,1,7,0.00
2013-7-9,97.9,85.4,76.1,78.0,74.1,70.2,86,70,50,29.89,29.80,4,1,6,0.01
2013-7-10,85.4,78.7,70.2,72.2,66.9,63.0,84,68,51,30.03,29.88,4,2,8,0.00
2013-7-11,87.4,75.7,63.7,66.2,63.2,59.0,92,67,46,30.06,29.92,4,1,8,0.00
2013-7-12,90.5,78.7,66.1,73.0,66.3,60.2,83,66,55,29.97,29.86,5,2,12,0.00
2013-7-13,87.7,78.7,72.2,75.1,67.9,62.2,78,70,61,29.94,29.86,6,2,13,0.00
2013-7-14,87.5,77.4,67.7,67.9,64.1,61.0,84,65,44,30.10,29.93,7,2,10,0.00
2013-7-15,89.1,78.0,65.2,73.3,67.6,62.1,90,71,53,30.15,30.06,5,1,9,0.00
2013-7-16,92.3,82.4,68.7,71.4,69.3,66.1,95,67,47,30.21,30.12,3,1,6,0.00
2013-7-17,94.0,82.5,71.9,73.6,71.6,69.7,93,72,48,30.24,30.10,3,1,7,0.00
2013-7-18,95.1,84.6,73.7,73.2,70.4,67.7,85,65,43,30.11,29.87,5,1,8,0.00
2013-7-19,95.8,85.6,76.4,73.1,67.2,61.1,72,56,33,29.88,29.80,4,1,7,0.00
2013-7-20,88.4,79.1,67.0,67.3,63.1,56.6,83,60,36,29.94,29.79,4,1,6,0.00
2013-7-21,90.4,79.0,70.1,75.0,70.2,65.4,94,76,57,29.87,29.71,6,1,8,0.50
2013-7-22,95.7,88.8,77.6,78.2,74.2,65.3,76,63,50,29.79,29.67,4,2,6,0.00
2013-7-23,83.1,74.4,65.9,68.1,64.6,61.5,93,72,57,29.97,29.77,5,2,9,0.05
2013-7-24,81.1,69.2,60.8,64.7,61.8,58.4,93,78,55,30.03,29.95,2,0,3,0.00
2013-7-25,83.4,73.9,67.7,70.5,65.4,62.1,89,75,57,30.01,29.93,4,1,9,0.01
2013-7-26,77.9,71.2,63.0,67.7,60.1,51.4,96,70,42,30.07,29.92,7,3,16,0.00
2013-7-27,74.0,65.4,56.2,54.5,50.7,45.4,88,61,40,30.11,29.98,5,2,10,0.00
2013-7-28,80.0,66.3,49.4,54.1,50.3,47.3,94,60,33,30.06,29.99,3,1,7,0.00
2013-7-29,66.8,63.1,58.7,64.0,58.3,51.0,96,85,63,30.04,29.98,5,2,10,0.10
2013-7-30,75.8,69.9,64.6,68.0,65.8,63.8,98,87,76,30.08,29.99,3,1,6,0.00
2013-7-31,87.2,74.6,62.5,68.8,66.0,61.6,98,77,52,30.11,29.99,3,1,5,0.00
2013-8-1,87.5,74.5,63.8,70.9,66.1,61.6,97,77,42,30.06,29.81,5,1,8,0.23
2013-8-2,84.6,75.3,66.8,70.7,67.0,61.1,95,76,60,29.98,29.78,4,2,10,0.00
2013-8-3,79.5,71.5,64.0,62.7,60.2,57.9,84,68,51,30.15,29.98,5,1,8,0.00
2013-8-4,79.3,71.2,60.7,67.4,61.8,56.4,88,73,59,30.15,29.99,5,2,8,0.00
2013-8-5,88.1,76.2,67.8,75.1,71.2,65.7,95,85,64,30.00,29.79,4,1,8,0.00
2013-8-6,90.7,78.6,69.7,75.7,71.7,65.6,98,81,57,29.89,29.74,6,1,9,0.00
2013-8-7,86.0,77.8,71.4,74.8,66.5,60.6,93,70,44,29.95,29.76,4,1,8,0.00
2013-8-8,79.0,71.4,64.5,67.3,63.8,61.2,90,78,62,29.99,29.91,2,1,7,0.00
2013-8-9,81.9,72.9,62.0,70.4,64.2,58.6,98,76,50,30.11,29.97,4,1,6,0.00
2013-8-10,85.3,71.4,58.3,64.8,61.2,57.1,97,73,49,30.17,30.04,3,1,6,0.00
2013-8-11,88.9,77.2,65.8,71.0,66.2,60.8,84,70,51,30.08,29.93,4,1,10,0.00
2013-8-12,85.6,77.0,70.2,70.9,66.3,60.7,92,71,44,30.02,29.94,3,1,7,0.00
2013-8-13,80.5,71.7,62.8,61.3,59.0,55.1,87,66,45,30.13,30.02,4,1,7,0.00
2013-8-14,76.9,68.1,57.3,62.7,58.7,54.7,91,73,54,30.17,30.05,4,1,7,0.03
2013-8-15,67.4,62.8,59.6,61.9,59.7,58.5,97,90,81,30.09,30.02,5,2,10,1.45
2013-8-16,74.4,66.8,61.7,61.6,59.3,57.8,91,78,61,30.16,30.08,5,2,12,0.01
2013-8-17,80.5,69.7,60.7,62.2,59.4,57.1,95,72,48,30.17,30.08,4,1,6,0.00
2013-8-18,82.2,69.5,55.3,64.2,60.1,54.5,98,75,49,30.13,30.02,3,1,6,0.00
2013-8-19,86.9,74.7,62.9,71.3,66.4,61.1,95,77,58,30.05,29.89,4,1,8,0.00
2013-8-20,91.3,79.6,69.1,72.8,69.6,66.6,92,73,53,29.92,29.85,5,2,9,0.00
2013-8-21,94.5,81.7,68.8,74.6,70.7,66.4,93,71,49,29.95,29.87,4,1,9,0.00
2013-8-22,84.7,77.2,71.1,72.2,69.2,66.2,87,77,61,30.05,29.91,5,1,8,0.00
2013-8-23,90.3,78.9,68.9,74.2,70.3,67.2,95,77,51,30.04,29.92,4,1,7,0.00
2013-8-24,92.7,82.4,74.0,76.1,72.2,69.2,86,72,56,30.01,29.93,4,2,15,0.00
2013-8-25,96.6,83.9,72.7,76.5,73.0,69.7,91,71,49,30.07,29.97,4,2,12,0.00
2013-8-26,97.3,84.8,72.0,74.3,72.1,69.5,92,68,45,30.02,29.88,4,2,6,0.00
2013-8-27,97.1,85.2,74.8,73.7,70.5,66.9,80,63,44,29.90,29.82,4,2,10,0.00
2013-8-28,97.2,82.8,67.3,72.5,68.0,62.7,92,64,33,29.93,29.86,3,1,6,0.00
2013-8-29,97.5,84.0,71.2,77.0,73.0,67.2,94,72,46,29.95,29.83,4,1,9,0.00
2013-8-30,98.0,84.5,70.7,79.9,73.0,68.7,94,71,43,29.84,29.75,4,1,6,0.00
2013-8-31,94.7,81.0,72.7,75.5,72.5,68.3,93,78,44,29.83,29.71,2,0,3,0.00
2013-9-1,82.5,75.2,67.8,71.3,64.8,57.8,98,73,46,29.95,29.70,9,3,15,0.51
2013-9-2,80.8,70.0,59.1,62.5,58.5,49.4,97,70,37,30.07,29.95,4,1,10,0.00
2013-9-3,86.5,70.8,55.3,64.2,60.5,54.6,98,73,46,30.08,29.98,3,1,6,0.00
2013-9-4,86.2,75.0,66.6,67.4,63.9,61.2,88,70,45,30.12,30.00,3,0,6,0.00
2013-9-5,83.3,73.8,67.3,69.6,66.7,64.6,96,80,58,30.17,30.04,4,1,6,0.27
2013-9-6,91.5,78.2,66.1,74.2,68.3,62.4,89,73,56,30.06,29.86,4,1,12,0.01
2013-9-7,91.7,80.3,70.8,74.6,70.7,66.4,89,74,50,29.87,29.77,5,1,7,0.00
2013-9-8,93.3,80.2,70.9,77.2,73.0,69.4,96,80,53,29.86,29.73,5,1,8,0.00
2013-9-9,98.7,84.9,74.6,72.9,65.3,59.6,88,55,28,29.79,29.71,6,2,13,0.00
2013-9-10,97.1,79.5,66.5,70.3,65.5,61.4,94,65,36,30.00,29.79,6,2,9,0.13
2013-9-11,84.9,74.9,68.5,73.5,69.7,67.2,98,85,66,30.06,29.99,4,1,6,0.88
2013-9-12,79.7,72.5,63.2,69.9,59.3,50.0,94,66,38,30.18,30.06,4,1,7,0.00
2013-9-13,76.1,64.8,53.4,54.7,52.5,50.3,91,66,44,30.21,30.05,3,1,6,0.00
2013-9-14,78.5,65.3,51.9,58.4,53.5,47.8,92,68,46,30.06,29.85,4,1,10,0.00
2013-9-15,69.4,65.3,61.8,65.0,59.4,54.4,97,82,62,30.22,29.83,5,2,10,0.71
2013-9-16,67.4,61.3,55.6,56.7,54.6,52.6,92,79,67,30.31,30.18,7,3,10,0.00
2013-9-17,73.6,64.2,57.1,68.8,62.2,55.9,98,93,85,30.18,29.86,4,2,7,0.28
2013-9-18,92.2,78.5,67.1,72.3,68.5,65.5,95,74,47,29.88,29.64,5,2,18,0.00
2013-9-19,84.4,72.8,61.3,70.5,64.1,51.0,95,75,57,29.95,29.67,8,3,11,0.18
2013-9-20,70.8,61.2,51.6,53.3,48.5,45.3,86,65,40,30.06,29.94,6,3,12,0.00
2013-9-21,76.3,60.6,44.6,55.2,49.8,43.8,97,71,41,30.03,29.85,3,1,6,0.00
2013-9-22,81.4,67.0,53.2,59.2,54.1,50.9,93,66,39,29.89,29.78,5,2,13,0.00
2013-9-23,77.7,66.0,53.3,57.7,53.1,50.3,90,65,43,29.83,29.69,6,3,15,0.00
2013-9-24,72.8,65.6,60.0,60.7,57.7,54.0,91,76,65,29.88,29.68,5,2,9,0.00
2013-9-25,81.0,66.5,54.3,62.5,58.5,53.2,98,78,50,29.90,29.72,5,1,8,0.00
2013-9-26,86.1,72.7,60.1,63.0,60.9,57.9,94,69,44,29.79,29.69,7,3,16,0.00
2013-9-27,88.7,77.3,69.6,63.8,62.2,59.7,77,61,38,29.81,29.71,5,3,12,0.00
2013-9-28,73.7,63.1,49.5,65.1,53.3,44.6,96,72,44,30.04,29.61,8,3,17,0.35
2013-9-29,78.3,60.7,43.5,50.1,46.0,42.3,97,64,32,30.06,29.87,4,1,11,0.00
2013-9-30,82.4,65.8,51.7,55.4,51.5,48.2,89,63,35,29.89,29.68,5,1,10,0.00
2013-10-1,81.0,67.6,52.7,57.8,53.6,50.3,95,63,39,29.92,29.75,3,1,6,0.00
2013-10-2,85.9,70.8,56.7,67.5,60.4,51.2,95,72,46,29.93,29.78,3,1,11,0.00
2013-10-3,83.9,70.3,60.9,69.1,63.4,59.4,97,80,56,29.83,29.66,11,1,15,2.70
2013-10-4,83.0,67.5,54.1,73.1,62.1,41.5,98,84,58,29.87,29.59,9,4,18,1.00
2013-10-5,53.6,48.0,42.5,42.0,36.5,34.8,84,65,52,29.93,29.82,9,5,17,0.00
2013-10-6,50.0,46.1,41.6,46.7,42.9,38.1,94,88,71,30.01,29.78,7,4,12,0.12
2013-10-7,76.4,57.0,41.4,47.5,42.3,39.0,91,62,30,30.10,29.99,6,1,10,0.00
2013-10-8,78.3,62.9,46.4,49.3,46.2,42.7,87,57,34,30.00,29.88,5,2,15,0.00
2013-10-9,78.1,63.4,52.9,55.4,51.2,48.5,85,66,43,29.99,29.91,5,2,11,0.00
2013-10-10,80.2,65.7,52.4,58.7,53.7,48.5,87,67,44,29.98,29.77,4,2,11,0.00
2013-10-11,80.0,66.9,55.7,61.1,52.1,42.2,86,63,27,29.87,29.59,7,3,14,0.00
2013-10-12,67.0,55.7,45.4,44.6,38.5,32.4,81,55,28,30.28,29.87,5,2,9,0.00
2013-10-13,69.3,53.3,37.6,42.5,38.3,35.3,96,62,31,30.43,30.28,4,1,8,0.00
2013-10-14,62.3,54.2,48.5,58.5,46.8,36.1,97,77,52,30.30,29.73,6,3,13,1.35
2013-10-15,56.8,49.0,46.2,53.0,42.1,38.0,89,77,68,30.07,29.79,10,6,15,0.00
2013-10-16,57.6,47.9,38.6,41.2,38.4,31.1,91,71,37,30.10,29.98,5,2,10,0.00
2013-10-17,61.4,46.6,34.2,44.1,38.6,33.0,97,76,47,30.07,29.91,8,3,17,0.00
2013-10-18,50.5,42.8,36.9,39.1,33.6,29.9,87,71,46,30.16,30.02,4,2,8,0.00
2013-10-19,62.2,46.4,30.6,40.2,34.9,28.8,95,68,40,30.03,29.83,8,2,12,0.00
2013-10-20,64.8,51.2,41.2,45.7,40.7,36.1,92,70,41,30.03,29.72,7,2,14,0.00
2013-10-21,55.3,43.9,32.1,40.3,35.6,30.1,94,74,52,30.13,29.96,5,1,9,0.00
2013-10-22,48.6,43.6,39.5,42.6,37.9,32.8,88,80,70,30.14,29.88,7,3,14,0.00
2013-10-23,46.5,39.9,32.2,40.0,35.7,30.6,94,85,73,30.23,30.08,4,1,7,0.00
2013-10-24,48.8,39.5,31.3,35.7,29.7,26.3,87,70,43,30.44,30.23,5,2,10,0.00
2013-10-25,59.7,42.4,25.4,36.3,30.5,23.9,95,67,40,30.45,30.09,5,1,11,0.00
2013-10-26,51.2,44.4,32.6,37.2,33.6,29.2,88,67,47,30.23,30.04,6,2,12,0.00
2013-10-27,70.1,45.8,27.1,40.4,33.5,25.5,96,68,32,30.18,29.85,4,1,7,0.00
2013-10-28,55.1,46.9,40.5,40.7,37.6,35.1,82,71,55,30.20,29.96,7,3,12,0.00
2013-10-29,54.3,47.9,42.7,53.7,46.0,39.5,98,93,74,30.21,29.95,5,2,10,0.27
2013-10-30,59.9,51.4,43.4,58.0,50.6,41.8,99,97,92,29.96,29.76,6,2,11,0.27
2013-10-31,57.4,46.0,38.9,47.2,40.5,37.6,97,83,57,29.77,29.52,6,2,13,0.00
2013-11-1,59.1,47.5,40.2,44.4,39.8,36.0,93,76,44,30.00,29.61,11,4,17,0.05
2013-11-2,59.3,45.4,37.3,40.6,36.2,33.6,87,72,40,30.21,30.00,6,2,10,0.00
2013-11-3,57.3,48.8,36.7,40.2,36.5,33.0,87,64,45,30.11,29.76,6,3,14,0.00
2013-11-4,55.7,50.5,41.4,45.7,41.5,37.2,86,72,56,30.15,29.80,7,2,13,0.00
2013-11-5,47.0,42.4,35.1,45.9,39.6,33.7,97,90,75,30.15,29.83,8,3,17,1.22
2013-11-6,42.7,37.0,30.8,35.7,33.1,29.5,97,86,73,30.32,30.05,7,3,12,0.00
2013-11-7,48.6,36.5,28.8,32.3,28.2,22.5,97,75,37,30.44,30.31,6,2,11,0.01
2013-11-8,64.6,46.3,28.9,40.7,33.4,25.8,92,63,34,30.33,29.76,10,2,14,0.00
2013-11-9,60.6,50.3,43.8,38.7,35.6,32.8,73,58,40,30.36,29.93,6,3,10,0.00
2013-11-10,53.3,43.9,31.5,38.5,31.6,28.3,89,63,42,30.44,30.17,3,1,7,0.00
2013-11-11,47.9,33.0,19.6,41.8,25.4,11.5,93,74,57,30.82,30.12,9,5,16,0.00
2013-11-12,34.3,21.6,12.9,13.0,10.5,8.3,83,64,34,30.97,30.65,5,2,7,0.00
2013-11-13,54.4,38.6,22.3,30.6,23.0,12.6,70,54,39,30.65,30.05,7,3,16,0.00
2013-11-14,53.9,40.7,29.4,36.2,30.1,24.5,87,67,47,30.04,29.92,5,1,8,0.00
2013-11-15,57.2,42.2,28.4,43.6,34.5,26.4,94,76,50,29.93,29.63,4,1,7,0.00
2013-11-16,66.1,54.1,45.9,54.7,43.4,34.3,93,70,39,29.63,29.31,11,3,15,0.00
2013-11-17,55.7,48.0,38.3,46.2,38.4,33.9,86,70,52,30.07,29.30,9,3,15,0.24
2013-11-18,58.0,40.6,30.1,34.4,29.0,23.8,92,67,27,30.29,30.07,4,1,7,0.00
2013-11-19,62.9,49.5,34.4,35.0,29.7,26.6,73,49,30,30.22,29.90,9,4,14,0.00
2013-11-20,55.9,47.7,38.3,39.0,34.5,29.4,90,62,44,29.95,29.76,6,4,10,0.00
2013-11-21,38.1,29.4,21.9,35.5,25.5,19.2,93,85,76,30.61,29.95,12,7,22,0.00
2013-11-22,29.7,21.3,15.3,19.3,12.6,8.7,87,70,47,30.78,30.61,10,3,13,0.00
2013-11-23,25.4,18.0,11.5,15.7,7.8,3.3,81,65,46,30.97,30.70,8,3,15,0.00
2013-11-24,30.1,20.8,10.7,16.5,11.4,5.9,84,68,54,30.85,30.31,7,3,12,0.00
2013-11-25,44.1,33.6,26.3,30.8,23.8,15.3,77,67,54,30.31,30.17,9,4,12,0.00
2013-11-26,32.8,27.5,19.3,25.6,16.7,8.8,82,65,44,30.49,30.24,13,5,21,0.00
2013-11-27,33.1,23.2,12.1,18.7,12.8,8.0,84,65,46,30.49,30.11,7,2,10,0.00
2013-11-28,33.9,28.3,19.9,23.0,19.3,16.2,86,69,55,30.55,30.13,9,4,18,0.00
2013-11-29,45.6,31.2,18.3,30.1,22.9,14.9,89,72,53,30.55,30.20,5,2,8,0.00
2013-11-30,56.5,39.6,26.7,34.3,29.1,22.5,87,68,42,30.19,30.08,3,1,6,0.00
2013-12-1,47.4,37.6,28.0,31.3,28.5,24.3,87,71,51,30.20,29.91,3,1,4,0.00
2013-12-2,63.3,44.5,31.4,37.7,33.2,28.0,90,67,36,29.90,29.54,5,1,8,0.00
2013-12-3,42.4,38.1,35.2,37.1,34.6,32.0,94,87,78,29.71,29.50,5,2,12,0.00
2013-12-4,35.5,23.9,17.0,33.8,19.8,8.6,95,84,69,30.14,29.65,11,7,21,0.00
2013-12-5,17.1,12.5,8.6,9.4,2.1,-4.3,73,63,52,30.54,30.14,10,6,22,0.00
2013-12-6,12.3,6.5,0.6,-1.8,-3.9,-7.2,74,62,51,30.83,30.54,8,4,15,0.00
2013-12-7,13.3,6.5,-1.4,3.1,-2.5,-6.9,79,67,55,30.89,30.53,6,2,8,0.00
2013-12-8,18.8,14.6,10.8,14.5,9.9,1.9,89,82,60,30.53,30.11,6,3,14,0.00
2013-12-9,12.4,6.3,-0.9,8.0,-0.3,-6.5,87,74,60,30.45,30.20,7,3,11,0.00
2013-12-10,28.4,22.3,12.2,24.4,14.3,4.9,90,71,55,30.36,30.18,8,3,13,0.00
2013-12-11,28.8,10.8,4.9,25.7,2.6,-4.0,92,69,56,30.75,30.32,14,4,22,0.00
2013-12-12,33.3,18.2,3.5,23.1,12.1,-0.1,89,77,65,30.58,30.17,3,1,5,0.00
2013-12-13,31.0,23.8,17.0,26.0,20.4,14.7,93,87,80,30.17,29.96,7,2,13,0.00
2013-12-14,23.1,18.8,15.2,19.5,14.3,11.9,90,82,75,30.30,30.15,8,3,11,0.00
2013-12-15,28.4,21.0,15.8,22.0,17.1,13.2,90,85,74,30.25,30.04,3,1,5,0.00
2013-12-16,47.2,28.5,13.5,34.0,22.8,11.0,90,80,59,30.23,30.06,9,1,14,0.00
2013-12-17,41.7,33.3,26.9,28.4,23.7,17.7,88,70,38,30.34,30.16,10,4,14,0.00
2013-12-18,58.3,40.4,25.5,34.7,28.6,18.8,85,64,40,30.16,29.74,5,1,9,0.00
2013-12-19,35.3,30.9,21.5,29.2,25.9,19.3,92,82,73,29.92,29.75,9,4,13,0.00
2013-12-20,21.3,17.1,14.1,19.3,13.9,11.4,92,87,81,30.06,29.93,9,4,17,0.00
2013-12-21,24.9,21.4,18.7,20.8,17.0,13.9,90,83,77,29.99,29.87,7,3,15,0.00
2013-12-22,22.1,17.4,9.1,19.9,12.1,2.3,92,80,65,30.49,29.93,10,6,17,0.00
2013-12-23,11.3,5.8,-2.8,2.5,-3.9,-7.2,82,65,48,30.72,30.49,8,3,16,0.00
2013-12-24,25.7,11.1,-4.0,23.5,6.3,-7.5,93,81,70,30.67,30.26,8,3,12,0.00
2013-12-25,41.9,30.2,20.2,30.6,23.4,18.2,93,77,55,30.37,30.29,12,4,19,0.00
2013-12-26,47.7,31.8,19.0,26.9,22.8,16.4,91,71,44,30.31,30.15,5,1,9,0.00
2013-12-27,61.9,37.7,20.0,35.2,26.6,17.3,93,68,31,30.32,30.11,9,2,10,0.00
2013-12-28,57.8,39.6,17.2,33.1,27.6,9.4,90,66,34,30.17,29.77,16,5,25,0.00
2013-12-29,16.8,9.4,4.5,9.0,-6.3,-12.9,73,50,29,30.46,30.17,15,6,25,0.00
2013-12-30,34.0,17.9,5.0,23.9,5.1,-7.6,80,58,45,30.41,30.16,11,3,20,0.00
2013-12-31,34.6,17.3,9.0,22.3,10.9,5.4,87,76,60,30.38,30.09,7,3,8,0.00
2014-1-1,11.5,8.8,4.0,6.5,3.9,-2.1,86,80,73,30.51,30.22,8,5,12,0.00
2014-1-2,10.0,4.7,1.0,0.2,-1.9,-4.2,84,74,59,30.59,30.49,4,2,7,0.00